createdAt,value
2024-04-07T00:01:08.561Z,0
2024-04-07T00:03:34.652Z,0
2024-04-07T00:05:59.766Z,0
2024-04-07T00:08:25.857Z,0
2024-04-07T00:10:51.949Z,0
2024-04-07T00:13:18.039Z,0
2024-04-07T00:15:44.133Z,0
2024-04-07T00:18:10.226Z,0
2024-04-07T00:20:36.341Z,0
2024-04-07T00:23:02.528Z,0
2024-04-07T00:25:28.501Z,0
2024-04-07T00:27:54.604Z,0
2024-04-07T00:30:20.699Z,0
2024-04-07T00:32:46.799Z,0
2024-04-07T00:35:12.899Z,0
2024-04-07T00:37:38.004Z,0
2024-04-07T00:40:04.105Z,0
2024-04-07T00:42:29.210Z,0
2024-04-07T00:44:55.312Z,0
2024-04-07T00:47:21.400Z,0
2024-04-07T00:49:47.493Z,0
2024-04-07T00:52:13.585Z,0
2024-04-07T00:54:39.677Z,0
2024-04-07T00:57:05.777Z,0
2024-04-07T00:59:31.890Z,0
2024-04-07T01:01:58.023Z,0
2024-04-07T01:04:24.075Z,0
2024-04-07T01:06:50.165Z,0
2024-04-07T01:09:16.255Z,0
2024-04-07T01:11:42.352Z,0
2024-04-07T01:14:07.469Z,0
2024-04-07T01:16:33.551Z,0
2024-04-07T01:18:59.660Z,0
2024-04-07T01:21:25.739Z,0
2024-04-07T01:23:51.831Z,0
2024-04-07T01:26:17.929Z,0
2024-04-07T01:28:44.034Z,0
2024-04-07T01:31:10.137Z,0
2024-04-07T01:33:36.217Z,0
2024-04-07T01:36:02.317Z,0
2024-04-07T01:38:28.407Z,0
2024-04-07T01:40:54.505Z,0
2024-04-07T01:43:20.583Z,0
2024-04-07T01:45:45.709Z,0
2024-04-07T01:48:11.806Z,0
2024-04-07T01:50:37.899Z,0
2024-04-07T01:53:03.989Z,0
2024-04-07T01:55:30.096Z,0
2024-04-07T01:57:56.171Z,0
2024-04-07T02:00:22.292Z,0
2024-04-07T02:02:48.400Z,0
2024-04-07T02:05:14.474Z,0
2024-04-07T02:07:40.602Z,0
2024-04-07T02:10:06.669Z,0
2024-04-07T02:12:32.755Z,0
2024-04-07T02:14:58.835Z,0
2024-04-07T02:17:23.957Z,0
2024-04-07T02:19:50.055Z,0
2024-04-07T02:22:16.145Z,0
2024-04-07T02:24:42.244Z,0
2024-04-07T02:27:08.335Z,0
2024-04-07T02:29:34.432Z,0
2024-04-07T02:32:00.527Z,0
2024-04-07T02:34:26.609Z,0
2024-04-07T02:36:52.713Z,0
2024-04-07T02:39:18.810Z,0
2024-04-07T02:41:44.904Z,0
2024-04-07T02:44:10.999Z,0
2024-04-07T02:46:37.097Z,0
2024-04-07T02:49:02.204Z,0
2024-04-07T02:51:28.277Z,0
2024-04-07T02:53:54.381Z,0
2024-04-07T02:56:20.483Z,0
2024-04-07T02:58:46.583Z,0
2024-04-07T03:01:12.676Z,0
2024-04-07T03:03:38.769Z,0
2024-04-07T03:06:04.854Z,0
2024-04-07T03:08:30.954Z,0
2024-04-07T03:10:57.072Z,0
2024-04-07T03:13:23.148Z,0
2024-04-07T03:15:49.229Z,0
2024-04-07T03:18:15.345Z,0
2024-04-07T03:20:40.438Z,0
2024-04-07T03:23:06.545Z,0
2024-04-07T03:25:32.636Z,0
2024-04-07T03:27:58.737Z,0
2024-04-07T03:30:24.822Z,0
2024-04-07T03:32:50.920Z,0
2024-04-07T03:35:17.007Z,0
2024-04-07T03:37:43.102Z,0
2024-04-07T03:40:09.190Z,0
2024-04-07T03:42:35.297Z,0
2024-04-07T03:45:01.392Z,0
2024-04-07T03:47:27.498Z,0
2024-04-07T03:49:53.567Z,0
2024-04-07T03:52:18.698Z,0
2024-04-07T03:54:44.777Z,0
2024-04-07T03:57:10.874Z,0
2024-04-07T03:59:36.977Z,0
2024-04-07T04:02:03.068Z,0
2024-04-07T04:04:29.174Z,0
2024-04-07T04:06:55.260Z,0
2024-04-07T04:09:21.372Z,0
2024-04-07T04:11:47.457Z,0
2024-04-07T04:14:13.532Z,0
2024-04-07T04:16:39.635Z,0
2024-04-07T04:19:05.734Z,0
2024-04-07T04:21:31.838Z,4
2024-04-07T04:23:56.950Z,4
2024-04-07T04:26:23.022Z,8
2024-04-07T04:28:49.117Z,12
2024-04-07T04:31:15.223Z,16
2024-04-07T04:33:41.322Z,20
2024-04-07T04:36:07.399Z,32
2024-04-07T04:38:33.509Z,44
2024-04-07T04:40:59.607Z,60
2024-04-07T04:43:25.702Z,84
2024-04-07T04:45:51.797Z,104
2024-04-07T04:48:17.884Z,132
2024-04-07T04:50:43.985Z,164
2024-04-07T04:53:10.078Z,208
2024-04-07T04:55:35.182Z,265
2024-04-07T04:58:01.294Z,333
2024-04-07T05:00:27.374Z,409
2024-04-07T05:02:53.490Z,493
2024-04-07T05:05:19.568Z,586
2024-04-07T05:07:45.670Z,682
2024-04-07T05:10:11.753Z,791
2024-04-07T05:12:37.841Z,907
2024-04-07T05:15:03.948Z,1032
2024-04-07T05:17:30.034Z,1144
2024-04-07T05:19:56.128Z,1293
2024-04-07T05:22:22.229Z,1445
2024-04-07T05:24:48.324Z,1570
2024-04-07T05:27:13.438Z,1650
2024-04-07T05:29:39.553Z,1678
2024-04-07T05:32:05.614Z,1658
2024-04-07T05:34:31.718Z,1626
2024-04-07T05:36:57.819Z,1606
2024-04-07T05:39:23.908Z,1610
2024-04-07T05:41:49.992Z,1606
2024-04-07T05:44:16.092Z,1650
2024-04-07T05:46:42.184Z,1815
2024-04-07T05:49:08.278Z,2019
2024-04-07T05:51:34.374Z,2200
2024-04-07T05:54:00.470Z,2236
2024-04-07T05:56:26.567Z,2256
2024-04-07T05:58:51.678Z,2317
2024-04-07T06:01:17.770Z,2313
2024-04-07T06:03:43.857Z,2272
2024-04-07T06:06:09.952Z,2288
2024-04-07T06:08:36.045Z,2369
2024-04-07T06:11:02.145Z,2489
2024-04-07T06:13:28.232Z,2682
2024-04-07T06:15:54.339Z,2887
2024-04-07T06:18:20.421Z,3108
2024-04-07T06:20:46.530Z,3421
2024-04-07T06:23:12.621Z,3847
2024-04-07T06:25:38.718Z,4300
2024-04-07T06:28:04.794Z,4597
2024-04-07T06:30:29.917Z,4766
2024-04-07T06:32:56.010Z,4911
2024-04-07T06:35:22.102Z,4975
2024-04-07T06:37:48.220Z,5071
2024-04-07T06:40:14.291Z,5011
2024-04-07T06:42:40.390Z,4923
2024-04-07T06:45:06.468Z,4903
2024-04-07T06:47:32.580Z,5043
2024-04-07T06:49:58.675Z,5360
2024-04-07T06:52:24.770Z,5581
2024-04-07T06:54:50.862Z,5581
2024-04-07T06:57:16.952Z,5244
2024-04-07T06:59:43.050Z,4834
2024-04-07T07:02:08.187Z,4449
2024-04-07T07:04:34.264Z,4344
2024-04-07T07:07:00.347Z,4557
2024-04-07T07:09:26.449Z,4943
2024-04-07T07:11:52.552Z,5364
2024-04-07T07:14:18.628Z,5866
2024-04-07T07:16:44.721Z,6525
2024-04-07T07:19:10.838Z,7003
2024-04-07T07:21:36.916Z,6955
2024-04-07T07:24:02.998Z,6497
2024-04-07T07:26:29.090Z,6296
2024-04-07T07:28:55.197Z,6417
2024-04-07T07:31:21.292Z,6826
2024-04-07T07:33:46.411Z,7244
2024-04-07T07:36:12.507Z,7501
2024-04-07T07:38:38.599Z,7593
2024-04-07T07:41:04.712Z,7437
2024-04-07T07:43:30.787Z,7549
2024-04-07T07:45:56.875Z,8300
2024-04-07T07:48:22.980Z,8926
2024-04-07T07:50:49.072Z,9099
2024-04-07T07:53:15.148Z,9304
2024-04-07T07:55:41.258Z,9762
2024-04-07T07:58:07.355Z,10609
2024-04-07T08:00:33.434Z,11356
2024-04-07T08:02:59.549Z,12259
2024-04-07T08:05:25.634Z,12978
2024-04-07T08:07:50.755Z,13295
2024-04-07T08:10:16.844Z,12906
2024-04-07T08:12:42.944Z,12304
2024-04-07T08:15:09.043Z,11926
2024-04-07T08:17:35.133Z,11938
2024-04-07T08:20:01.241Z,11890
2024-04-07T08:22:27.461Z,11697
2024-04-07T08:24:53.620Z,11677
2024-04-07T08:27:19.674Z,11741
2024-04-07T08:29:45.915Z,12035
2024-04-07T08:32:11.987Z,12649
2024-04-07T08:34:38.131Z,13167
2024-04-07T08:37:04.015Z,13645
2024-04-07T08:39:29.115Z,13681
2024-04-07T08:41:55.082Z,13914
2024-04-07T08:44:21.191Z,14014
2024-04-07T08:46:47.271Z,14046
2024-04-07T08:49:13.379Z,13801
2024-04-07T08:51:38.497Z,13613
2024-04-07T08:54:04.580Z,13348
2024-04-07T08:56:30.678Z,13420
2024-04-07T08:58:56.770Z,13243
2024-04-07T09:01:22.857Z,12753
2024-04-07T09:03:48.947Z,12131
2024-04-07T09:06:15.044Z,11942
2024-04-07T09:08:41.161Z,12063
2024-04-07T09:11:07.240Z,12051
2024-04-07T09:13:33.323Z,12187
2024-04-07T09:15:59.433Z,12203
2024-04-07T09:18:25.538Z,12135
2024-04-07T09:20:51.614Z,11593
2024-04-07T09:23:16.722Z,11533
2024-04-07T09:25:42.802Z,12263
2024-04-07T09:28:08.977Z,13095
2024-04-07T09:30:35.115Z,13512
2024-04-07T09:33:01.091Z,14074
2024-04-07T09:35:27.220Z,14074
2024-04-07T09:37:53.301Z,14404
2024-04-07T09:40:19.372Z,14564
2024-04-07T09:42:45.471Z,14223
2024-04-07T09:45:11.571Z,14344
2024-04-07T09:47:37.665Z,14950
2024-04-07T09:50:03.747Z,15263
2024-04-07T09:52:29.843Z,15621
2024-04-07T09:54:54.961Z,16183
2024-04-07T09:57:21.070Z,16793
2024-04-07T09:59:47.154Z,17572
2024-04-07T10:02:13.254Z,17476
2024-04-07T10:04:39.351Z,16673
2024-04-07T10:07:05.444Z,15588
2024-04-07T10:09:31.543Z,13661
2024-04-07T10:11:57.623Z,11717
2024-04-07T10:14:23.712Z,10420
2024-04-07T10:16:49.810Z,9332
2024-04-07T10:19:16.186Z,8541
2024-04-07T10:21:42.020Z,8308
2024-04-07T10:24:08.100Z,8135
2024-04-07T10:26:33.218Z,8059
2024-04-07T10:28:59.321Z,7657
2024-04-07T10:31:25.412Z,7822
2024-04-07T10:33:51.502Z,7802
2024-04-07T10:36:17.593Z,8517
2024-04-07T10:38:43.833Z,8754
2024-04-07T10:41:09.792Z,8509
2024-04-07T10:43:35.881Z,8501
2024-04-07T10:46:01.961Z,9464
2024-04-07T10:48:28.053Z,10420
2024-04-07T10:50:54.151Z,11733
2024-04-07T10:53:20.235Z,12793
2024-04-07T10:55:46.342Z,13271
2024-04-07T10:58:11.445Z,14757
2024-04-07T11:00:37.710Z,15837
2024-04-07T11:03:03.628Z,16147
2024-04-07T11:05:29.732Z,16693
2024-04-07T11:07:55.838Z,16753
2024-04-07T11:10:21.912Z,16841
2024-04-07T11:12:47.995Z,16604
2024-04-07T11:15:14.082Z,16211
2024-04-07T11:17:40.212Z,15227
2024-04-07T11:20:06.295Z,14833
2024-04-07T11:22:32.385Z,14797
2024-04-07T11:24:58.473Z,15123
2024-04-07T11:27:24.567Z,15131
2024-04-07T11:29:49.678Z,15094
2024-04-07T11:32:15.781Z,15339
2024-04-07T11:34:41.874Z,14697
2024-04-07T11:37:07.970Z,14813
2024-04-07T11:39:34.066Z,13813
2024-04-07T11:42:00.161Z,13954
2024-04-07T11:44:26.244Z,13649
2024-04-07T11:46:52.357Z,13540
2024-04-07T11:49:18.445Z,14725
2024-04-07T11:51:44.537Z,14392
2024-04-07T11:54:10.636Z,16400
2024-04-07T11:56:36.728Z,17861
2024-04-07T11:59:02.815Z,17958
2024-04-07T12:01:27.922Z,18279
2024-04-07T12:03:54.034Z,17476
2024-04-07T12:06:20.120Z,17701
2024-04-07T12:08:46.210Z,18407
2024-04-07T12:11:12.306Z,17958
2024-04-07T12:13:38.386Z,19596
2024-04-07T12:16:04.497Z,18697
2024-04-07T12:18:30.599Z,18889
2024-04-07T12:20:56.690Z,18825
2024-04-07T12:23:22.772Z,20014
2024-04-07T12:25:48.877Z,20078
2024-04-07T12:28:14.957Z,20817
2024-04-07T12:30:41.067Z,20656
2024-04-07T12:33:06.184Z,20271
2024-04-07T12:35:32.269Z,19564
2024-04-07T12:37:58.360Z,21524
2024-04-07T12:40:24.441Z,22423
2024-04-07T12:42:50.540Z,23098
2024-04-07T12:45:16.635Z,22616
2024-04-07T12:47:42.738Z,21363
2024-04-07T12:50:08.826Z,21106
2024-04-07T12:52:34.914Z,21620
2024-04-07T12:55:01.004Z,23772
2024-04-07T12:57:27.112Z,24865
2024-04-07T12:59:53.218Z,24158
2024-04-07T13:02:19.299Z,22905
2024-04-07T13:04:44.432Z,24736
2024-04-07T13:07:10.506Z,23290
2024-04-07T13:09:36.607Z,22262
2024-04-07T13:12:02.681Z,22841
2024-04-07T13:14:28.802Z,23708
2024-04-07T13:16:54.910Z,24961
2024-04-07T13:19:20.979Z,24126
2024-04-07T13:21:47.086Z,23837
2024-04-07T13:24:13.176Z,24318
2024-04-07T13:26:39.277Z,22519
2024-04-07T13:29:05.383Z,22905
2024-04-07T13:31:31.448Z,24640
2024-04-07T13:33:57.549Z,23740
2024-04-07T13:36:23.651Z,22616
2024-04-07T13:38:49.747Z,20014
2024-04-07T13:41:15.838Z,18440
2024-04-07T13:43:41.923Z,17990
2024-04-07T13:46:08.020Z,18729
2024-04-07T13:48:33.182Z,18889
2024-04-07T13:50:59.220Z,18440
2024-04-07T13:53:25.330Z,18536
2024-04-07T13:55:51.520Z,19757
2024-04-07T13:58:17.522Z,23869
2024-04-07T14:00:43.612Z,23837
2024-04-07T14:03:09.713Z,28816
2024-04-07T14:05:35.809Z,36687
2024-04-07T14:08:01.906Z,38132
2024-04-07T14:10:27.987Z,38454
2024-04-07T14:12:54.075Z,33988
2024-04-07T14:15:20.178Z,36109
2024-04-07T14:17:46.270Z,28302
2024-04-07T14:20:12.375Z,25025
2024-04-07T14:22:38.450Z,21748
2024-04-07T14:25:04.550Z,27403
2024-04-07T14:27:30.654Z,25379
2024-04-07T14:29:56.748Z,23451
2024-04-07T14:32:22.839Z,25154
2024-04-07T14:34:48.943Z,22905
2024-04-07T14:37:14.026Z,27274
2024-04-07T14:39:40.142Z,24286
2024-04-07T14:42:06.257Z,30422
2024-04-07T14:44:32.318Z,38839
2024-04-07T14:46:58.416Z,30776
2024-04-07T14:49:24.504Z,37361
2024-04-07T14:51:50.605Z,41474
2024-04-07T14:54:16.700Z,42148
2024-04-07T14:56:42.794Z,37651
2024-04-07T14:59:08.902Z,45393
2024-04-07T15:01:34.992Z,43240
2024-04-07T15:04:01.098Z,25057
2024-04-07T15:06:27.177Z,23644
2024-04-07T15:08:52.297Z,34310
2024-04-07T15:13:44.468Z,27242
2024-04-07T15:16:10.577Z,29330
2024-04-07T15:18:36.675Z,33121
2024-04-07T15:21:02.764Z,26053
2024-04-07T15:23:28.862Z,31804
2024-04-07T15:25:54.957Z,27595
2024-04-07T15:30:47.158Z,15050
2024-04-07T15:33:13.240Z,18536
2024-04-07T15:35:39.341Z,25314
2024-04-07T15:38:05.444Z,19982
2024-04-07T15:42:56.631Z,19082
2024-04-07T15:45:21.737Z,23098
2024-04-07T15:47:46.869Z,20399
2024-04-07T15:50:12.960Z,24286
2024-04-07T15:52:39.083Z,16865
2024-04-07T15:55:05.151Z,20239
2024-04-07T15:57:31.247Z,20720
2024-04-07T15:59:57.349Z,19885
2024-04-07T16:02:23.425Z,21459
2024-04-07T16:04:49.539Z,20656
2024-04-07T16:07:15.958Z,17540
2024-04-07T16:09:40.767Z,12910
2024-04-07T16:12:06.014Z,11251
2024-04-07T16:14:31.966Z,10621
2024-04-07T16:16:58.047Z,9264
2024-04-07T16:19:24.153Z,8236
2024-04-07T16:21:50.230Z,8043
2024-04-07T16:24:16.322Z,7320
2024-04-07T16:26:42.750Z,7163
2024-04-07T16:29:08.601Z,6778
2024-04-07T16:31:34.627Z,6573
2024-04-07T16:34:00.703Z,5874
2024-04-07T16:36:27.112Z,4722
2024-04-07T16:38:53.116Z,3642
2024-04-07T16:41:19.174Z,2891
2024-04-07T16:43:45.452Z,2377
2024-04-07T16:46:11.580Z,2035
2024-04-07T16:48:37.362Z,1947
2024-04-07T16:51:03.716Z,2056
2024-04-07T16:53:28.760Z,2208
2024-04-07T16:55:54.846Z,2276
2024-04-07T16:58:20.674Z,2248
2024-04-07T17:00:46.046Z,2220
2024-04-07T17:03:11.899Z,2333
2024-04-07T17:05:38.261Z,2437
2024-04-07T17:08:04.071Z,2381
2024-04-07T17:10:30.159Z,2196
2024-04-07T17:12:56.252Z,1927
2024-04-07T17:15:22.355Z,1734
2024-04-07T17:17:48.432Z,1654
2024-04-07T17:20:14.544Z,1602
2024-04-07T17:22:40.652Z,1481
2024-04-07T17:25:06.736Z,1373
2024-04-07T17:27:32.808Z,1289
2024-04-07T17:29:58.927Z,1128
2024-04-07T17:32:24.028Z,959
2024-04-07T17:34:50.125Z,807
2024-04-07T17:37:16.217Z,702
2024-04-07T17:39:42.323Z,618
2024-04-07T17:42:08.411Z,522
2024-04-07T17:44:34.520Z,425
2024-04-07T17:47:00.602Z,345
2024-04-07T17:49:26.678Z,285
2024-04-07T17:51:52.781Z,240
2024-04-07T17:54:18.875Z,200
2024-04-07T17:56:44.974Z,160
2024-04-07T17:59:11.065Z,128
2024-04-07T18:01:37.168Z,100
2024-04-07T18:04:02.284Z,84
2024-04-07T18:06:28.371Z,64
2024-04-07T18:08:54.475Z,48
2024-04-07T18:11:20.560Z,36
2024-04-07T18:13:46.631Z,28
2024-04-07T18:18:38.828Z,16
2024-04-07T18:21:04.962Z,8
2024-04-07T18:23:31.020Z,4
2024-04-07T18:25:57.113Z,4
2024-04-07T18:28:23.239Z,4
2024-04-07T18:30:49.328Z,0
2024-04-07T18:33:15.401Z,0
2024-04-07T18:35:40.519Z,0
2024-04-07T18:38:06.601Z,0
2024-04-07T18:40:32.703Z,0
2024-04-07T18:42:58.798Z,0
2024-04-07T18:45:24.874Z,0
2024-04-07T18:47:51.017Z,0
2024-04-07T18:50:17.086Z,0
2024-04-07T18:52:43.168Z,0
2024-04-07T18:55:09.264Z,0
2024-04-07T18:57:35.368Z,0
2024-04-07T19:00:01.443Z,0
2024-04-07T19:02:27.541Z,0
2024-04-07T19:04:53.641Z,0
2024-04-07T19:07:18.742Z,0
2024-04-07T19:09:44.822Z,0
2024-04-07T19:12:10.922Z,0
2024-04-07T19:14:37.029Z,0
2024-04-07T19:17:03.113Z,0
2024-04-07T19:19:29.202Z,0
2024-04-07T19:21:55.304Z,0
2024-04-07T19:24:21.395Z,0
2024-04-07T19:26:47.506Z,0
2024-04-07T19:29:13.607Z,0
2024-04-07T19:31:39.696Z,0
2024-04-07T19:34:05.791Z,0
2024-04-07T19:36:31.898Z,0
2024-04-07T19:38:56.988Z,0
2024-04-07T19:41:23.089Z,0
2024-04-07T19:43:49.178Z,0
2024-04-07T19:46:15.256Z,0
2024-04-07T19:48:41.360Z,0
2024-04-07T19:51:07.458Z,0
2024-04-07T19:53:33.529Z,0
2024-04-07T19:55:59.640Z,0
2024-04-07T19:58:25.749Z,0
2024-04-07T20:00:51.825Z,0
2024-04-07T20:03:17.928Z,0
2024-04-07T20:05:44.059Z,0
2024-04-07T20:08:10.111Z,0
2024-04-07T20:10:35.254Z,0
2024-04-07T20:13:01.312Z,0
2024-04-07T20:15:27.414Z,0
2024-04-07T20:17:53.502Z,0
2024-04-07T20:20:19.583Z,0
2024-04-07T20:22:45.723Z,0
2024-04-07T20:25:11.795Z,0
2024-04-07T20:27:37.893Z,0
2024-04-07T20:30:03.982Z,0
2024-04-07T20:32:30.073Z,0
2024-04-07T20:34:56.158Z,0
2024-04-07T20:37:22.259Z,0
2024-04-07T20:39:48.347Z,0
2024-04-07T20:42:13.473Z,0
2024-04-07T20:44:39.569Z,0
2024-04-07T20:47:05.667Z,0
2024-04-07T20:49:31.751Z,0
2024-04-07T20:51:57.837Z,0
2024-04-07T20:54:23.935Z,0
2024-04-07T20:56:50.063Z,0
2024-04-07T20:59:16.122Z,0
2024-04-07T21:01:42.245Z,0
2024-04-07T21:04:08.334Z,0
2024-04-07T21:06:34.452Z,0
2024-04-07T21:09:00.492Z,0
2024-04-07T21:11:26.604Z,0
2024-04-07T21:13:51.700Z,0
2024-04-07T21:16:17.812Z,0
2024-04-07T21:18:43.886Z,0
2024-04-07T21:21:10.023Z,0
2024-04-07T21:23:36.091Z,0
2024-04-07T21:26:02.179Z,0
2024-04-07T21:28:28.278Z,0
2024-04-07T21:30:54.380Z,0
2024-04-07T21:33:20.460Z,0
2024-04-07T21:35:46.561Z,0
2024-04-07T21:38:12.669Z,0
2024-04-07T21:40:38.764Z,0
2024-04-07T21:43:04.830Z,0
2024-04-07T21:45:29.960Z,0
2024-04-07T21:47:56.052Z,0
2024-04-07T21:50:22.155Z,0
2024-04-07T21:52:48.242Z,0
2024-04-07T21:55:14.332Z,0
2024-04-07T21:57:40.426Z,0
2024-04-07T22:00:06.518Z,0
2024-04-07T22:02:32.621Z,0
2024-04-07T22:04:58.707Z,0
2024-04-07T22:07:24.805Z,0
2024-04-07T22:09:50.906Z,0
2024-04-07T22:12:17.018Z,0
2024-04-07T22:14:43.091Z,0
2024-04-07T22:17:08.203Z,0
2024-04-07T22:19:34.291Z,0
2024-04-07T22:22:00.389Z,0
2024-04-07T22:24:26.494Z,0
2024-04-07T22:26:52.589Z,0
2024-04-07T22:29:18.721Z,0
2024-04-07T22:31:44.768Z,0
2024-04-07T22:34:10.862Z,0
2024-04-07T22:36:36.972Z,0
2024-04-07T22:39:03.056Z,0
2024-04-07T22:41:29.166Z,0
2024-04-07T22:43:55.240Z,0
2024-04-07T22:46:21.344Z,0
2024-04-07T22:48:46.476Z,0
2024-04-07T22:51:12.556Z,0
2024-04-07T22:53:38.638Z,0
2024-04-07T22:56:04.736Z,0
2024-04-07T22:58:30.820Z,0
2024-04-07T23:00:56.918Z,0
2024-04-07T23:03:23.017Z,0
2024-04-07T23:05:49.118Z,0
2024-04-07T23:08:15.207Z,0
2024-04-07T23:10:41.313Z,0
2024-04-07T23:13:07.393Z,0
2024-04-07T23:15:33.474Z,0
2024-04-07T23:17:59.579Z,0
2024-04-07T23:20:24.680Z,0
2024-04-07T23:22:50.818Z,0
2024-04-07T23:25:16.888Z,0
2024-04-07T23:27:42.969Z,0
2024-04-07T23:30:09.070Z,0
2024-04-07T23:32:35.155Z,0
2024-04-07T23:35:01.262Z,0
2024-04-07T23:37:27.352Z,0
2024-04-07T23:39:53.456Z,0
2024-04-07T23:42:19.543Z,0
2024-04-07T23:44:45.646Z,0
2024-04-07T23:47:11.737Z,0
2024-04-07T23:49:37.847Z,0
2024-04-07T23:52:02.943Z,0
2024-04-07T23:54:29.019Z,0
2024-04-07T23:56:55.130Z,0
2024-04-07T23:59:21.209Z,0
